Time;durP1;ratioP1;P1;durP2;ratioP2;P2;SDS_P1;SDS_P2;PMS_P1;PMS_P2;Temp;Humidity;BMP_temperature;BMP_pressure;BME280_temperature;BME280_humidity;BME280_pressure;Samples;Min_cycle;Max_cycle;Signal;HPM_P1;HPM_P2
2022/03/09 00:01:54;;;;;;;14.13;8.38;;;-0.30;61.40;;;;;;4993803;28;20034;-85
2022/03/09 00:04:20;;;;;;;16.23;8.52;;;-0.30;61.60;;;;;;4979279;28;20026;-86
2022/03/09 00:06:45;;;;;;;14.73;8.05;;;-0.30;61.60;;;;;;4976648;28;20465;-87
2022/03/09 00:09:13;;;;;;;17.00;7.78;;;-0.30;61.60;;;;;;4987155;28;20026;-87
2022/03/09 00:11:39;;;;;;;16.05;7.88;;;-0.40;61.60;;;;;;5006937;28;20505;-86
2022/03/09 00:14:04;;;;;;;12.57;7.57;;;-0.40;61.80;;;;;;4972070;28;20023;-87
2022/03/09 00:16:30;;;;;;;14.75;7.57;;;-0.40;61.90;;;;;;4968508;28;20097;-87
2022/03/09 00:18:55;;;;;;;11.77;7.60;;;-0.40;61.80;;;;;;4977736;28;20125;-87
2022/03/09 00:21:21;;;;;;;11.75;7.00;;;-0.40;61.80;;;;;;4962300;28;20039;-86
2022/03/09 00:23:47;;;;;;;13.55;7.63;;;-0.40;62.00;;;;;;4972358;28;20057;-87
2022/03/09 00:26:13;;;;;;;12.27;7.28;;;-0.40;61.90;;;;;;4990752;28;20042;-86
2022/03/09 00:28:38;;;;;;;14.80;7.82;;;-0.50;61.90;;;;;;4973309;28;20486;-87
2022/03/09 00:31:04;;;;;;;12.75;6.90;;;-0.50;62.00;;;;;;4976240;28;20041;-86
2022/03/09 00:33:30;;;;;;;14.25;7.07;;;-0.50;62.10;;;;;;4978629;28;20030;-86
2022/03/09 00:35:58;;;;;;;13.88;7.55;;;-0.50;62.40;;;;;;4972354;28;20153;-86
2022/03/09 00:38:24;;;;;;;12.88;7.80;;;-0.50;62.70;;;;;;4970394;28;20088;-86
2022/03/09 00:40:50;;;;;;;15.05;7.70;;;-0.40;62.90;;;;;;4979173;28;20046;-84
2022/03/09 00:43:16;;;;;;;17.23;8.18;;;-0.40;63.00;;;;;;5004949;28;20022;-85
2022/03/09 00:45:42;;;;;;;16.13;7.50;;;-0.30;63.20;;;;;;4994247;28;20023;-83
2022/03/09 00:48:08;;;;;;;13.52;7.70;;;-0.30;63.20;;;;;;4988698;28;20097;-86
2022/03/09 00:50:33;;;;;;;12.80;6.93;;;-0.30;63.70;;;;;;4979157;28;20115;-86
2022/03/09 00:52:59;;;;;;;16.25;8.18;;;-0.30;63.20;;;;;;4966344;28;20261;-86
2022/03/09 00:55:25;;;;;;;14.13;6.93;;;-0.30;63.40;;;;;;4960521;28;20038;-86
2022/03/09 00:57:50;;;;;;;10.35;6.68;;;-0.40;63.50;;;;;;5003264;28;20018;-87
2022/03/09 01:00:16;;;;;;;10.75;6.90;;;-0.40;63.30;;;;;;4991807;28;20038;-86
2022/03/09 01:02:44;;;;;;;11.65;6.20;;;-0.30;63.30;;;;;;4991514;28;20560;-85
2022/03/09 01:05:10;;;;;;;14.68;6.88;;;-0.40;63.20;;;;;;4992716;28;20029;-85
2022/03/09 01:07:36;;;;;;;12.15;7.43;;;-0.50;63.10;;;;;;5018698;28;20042;-85
2022/03/09 01:10:02;;;;;;;11.52;6.60;;;-0.50;63.10;;;;;;4994256;28;20019;-85
2022/03/09 01:12:28;;;;;;;13.02;6.63;;;-0.50;63.30;;;;;;4998712;28;20023;-85
2022/03/09 01:14:53;;;;;;;13.57;6.90;;;-0.60;63.40;;;;;;4996940;28;20041;-85
2022/03/09 01:17:19;;;;;;;12.15;6.53;;;-0.50;63.50;;;;;;4980496;28;20482;-85
2022/03/09 01:19:44;;;;;;;14.27;6.82;;;-0.60;63.50;;;;;;4983406;28;20019;-85
2022/03/09 01:22:10;;;;;;;11.10;5.70;;;-0.50;63.60;;;;;;4974871;28;20026;-87
2022/03/09 01:24:36;;;;;;;9.25;6.40;;;-0.60;63.60;;;;;;4961690;28;20509;-87
2022/03/09 01:27:01;;;;;;;12.00;6.63;;;-0.60;63.70;;;;;;4984582;28;20034;-86
2022/03/09 01:29:27;;;;;;;10.82;6.20;;;-0.50;63.80;;;;;;4969987;28;20493;-87
2022/03/09 01:31:52;;;;;;;10.98;6.00;;;-0.50;63.80;;;;;;4994972;28;20026;-88
2022/03/09 01:34:18;;;;;;;12.15;6.82;;;-0.50;64.00;;;;;;4989478;28;20070;-88
2022/03/09 01:36:43;;;;;;;11.35;5.85;;;-0.50;64.10;;;;;;4967198;28;20229;-88
2022/03/09 01:39:09;;;;;;;12.30;6.85;;;-0.50;64.10;;;;;;4976712;28;20084;-86
2022/03/09 01:41:35;;;;;;;11.90;6.40;;;-0.50;64.10;;;;;;4973135;28;20056;-88
2022/03/09 01:44:13;;;;;;;13.10;6.13;;;-0.40;64.20;;;;;;4977335;28;20050;-88
2022/03/09 01:46:39;;;;;;;11.20;6.20;;;-0.50;63.90;;;;;;4975635;28;20027;-87
2022/03/09 01:49:06;;;;;;;11.25;6.35;;;-0.50;63.90;;;;;;4982931;28;20030;-87
2022/03/09 01:51:35;;;;;;;10.77;6.20;;;-0.60;63.90;;;;;;4983483;28;20089;-87
2022/03/09 01:54:00;;;;;;;11.32;6.22;;;-0.60;64.00;;;;;;4972118;28;20022;-86
2022/03/09 01:56:27;;;;;;;11.30;6.78;;;-0.60;64.10;;;;;;4979639;28;20025;-87
2022/03/09 01:58:52;;;;;;;12.80;6.80;;;-0.70;64.00;;;;;;4969165;28;20108;-87
2022/03/09 02:01:18;;;;;;;14.30;6.90;;;-0.70;64.00;;;;;;4979136;28;20475;-86
2022/03/09 02:03:43;;;;;;;14.77;6.25;;;-0.80;64.10;;;;;;4970022;28;20034;-86
2022/03/09 02:06:10;;;;;;;10.32;6.20;;;-0.80;64.20;;;;;;4964161;28;20030;-87
2022/03/09 02:11:20;;;;;;;10.90;6.45;;;-0.80;64.90;;;;;;4984166;28;20077;-86
2022/03/09 02:13:46;;;;;;;11.50;6.38;;;-0.80;64.90;;;;;;4971785;28;20018;-85
2022/03/09 02:16:14;;;;;;;13.70;7.18;;;-0.80;65.00;;;;;;5003805;28;20483;-87
2022/03/09 02:18:40;;;;;;;11.23;6.50;;;-0.80;65.20;;;;;;4979305;28;20033;-87
2022/03/09 02:21:08;;;;;;;11.77;6.38;;;-0.90;65.20;;;;;;4965963;28;20038;-87
2022/03/09 02:23:34;;;;;;;13.10;7.13;;;-0.90;65.10;;;;;;4990774;28;20367;-87
2022/03/09 02:25:59;;;;;;;13.35;6.68;;;-0.90;65.20;;;;;;4968356;28;20038;-87
2022/03/09 02:28:25;;;;;;;11.68;6.68;;;-0.90;65.20;;;;;;4969214;28;20034;-86
2022/03/09 02:30:55;;;;;;;9.23;6.13;;;-0.90;65.10;;;;;;4986910;28;20022;-86
2022/03/09 02:33:21;;;;;;;10.40;6.35;;;-1.00;65.10;;;;;;4966386;28;20203;-85
2022/03/09 02:35:47;;;;;;;9.07;5.50;;;-1.00;65.00;;;;;;4989715;28;20030;-86
2022/03/09 02:38:13;;;;;;;13.20;6.82;;;-1.00;64.90;;;;;;4974033;28;20026;-86
2022/03/09 02:40:38;;;;;;;10.25;6.00;;;-1.00;65.00;;;;;;4970698;28;20026;-86
2022/03/09 02:43:04;;;;;;;10.80;6.25;;;-1.00;65.20;;;;;;4977787;28;20026;-86
2022/03/09 02:45:29;;;;;;;13.00;6.22;;;-1.00;65.20;;;;;;4989371;28;20038;-87
2022/03/09 02:47:56;;;;;;;11.77;7.05;;;-1.00;65.20;;;;;;4969806;28;20033;-86
2022/03/09 02:50:22;;;;;;;12.73;6.72;;;-1.00;65.30;;;;;;4977693;28;20033;-86
2022/03/09 02:52:48;;;;;;;11.15;6.30;;;-1.00;65.50;;;;;;4981135;28;20031;-86
2022/03/09 02:55:14;;;;;;;10.52;6.47;;;-0.90;65.60;;;;;;4983141;28;20023;-86
2022/03/09 02:57:41;;;;;;;13.20;6.88;;;-0.90;65.50;;;;;;4965485;28;20518;-86
2022/03/09 03:00:08;;;;;;;11.93;6.45;;;-0.90;65.60;;;;;;4982383;28;20034;-86
2022/03/09 03:02:35;;;;;;;12.27;6.95;;;-0.80;65.90;;;;;;4972804;28;20088;-86
2022/03/09 03:05:00;;;;;;;13.10;6.68;;;-0.80;65.90;;;;;;4991473;28;20067;-86
2022/03/09 03:07:26;;;;;;;14.07;6.53;;;-0.80;66.10;;;;;;4965327;28;20044;-86
2022/03/09 03:09:51;;;;;;;12.18;6.95;;;-0.80;66.10;;;;;;4979985;28;20026;-85
2022/03/09 03:12:17;;;;;;;11.48;6.72;;;-0.80;66.00;;;;;;4983678;28;20034;-87
2022/03/09 03:14:43;;;;;;;13.77;7.00;;;-0.90;65.90;;;;;;4972522;28;20018;-86
2022/03/09 03:17:08;;;;;;;11.90;6.68;;;-0.90;65.90;;;;;;4969132;28;20050;-85
2022/03/09 03:19:34;;;;;;;9.73;6.75;;;-1.00;66.00;;;;;;4966834;28;20387;-86
2022/03/09 03:22:00;;;;;;;11.10;6.60;;;-1.00;66.20;;;;;;4981856;28;20497;-87
2022/03/09 03:24:27;;;;;;;12.02;6.85;;;-1.00;66.60;;;;;;4992892;28;20088;-86
2022/03/09 03:26:53;;;;;;;11.73;6.88;;;-0.90;66.50;;;;;;4985025;28;21950;-86
2022/03/09 03:29:18;;;;;;;12.27;6.68;;;-0.90;66.40;;;;;;4995321;28;20034;-85
2022/03/09 03:31:44;;;;;;;12.50;7.60;;;-0.90;66.40;;;;;;4973066;28;20073;-86
2022/03/09 03:34:09;;;;;;;12.75;7.68;;;-0.90;66.50;;;;;;4980336;28;20037;-87
2022/03/09 03:36:35;;;;;;;13.98;7.45;;;-0.90;66.60;;;;;;4970721;28;20196;-86
2022/03/09 03:39:04;;;;;;;14.50;7.20;;;-0.90;66.80;;;;;;4964859;28;20117;-85
2022/03/09 03:41:29;;;;;;;15.32;7.55;;;-0.80;67.00;;;;;;4972373;28;20026;-86
2022/03/09 03:43:55;;;;;;;13.25;6.78;;;-0.80;66.80;;;;;;4970825;28;20494;-86
2022/03/09 03:46:20;;;;;;;12.95;6.95;;;-0.90;66.80;;;;;;4959857;28;20035;-84
2022/03/09 03:48:46;;;;;;;17.48;7.38;;;-1.00;66.60;;;;;;4975365;28;20022;-87
2022/03/09 03:51:12;;;;;;;13.98;7.15;;;-1.10;66.40;;;;;;4980347;28;20033;-86
2022/03/09 03:53:37;;;;;;;12.10;7.68;;;-1.20;66.50;;;;;;4976035;28;20034;-85
2022/03/09 03:56:03;;;;;;;15.27;7.80;;;-1.40;66.50;;;;;;4980824;28;20017;-86
2022/03/09 03:58:29;;;;;;;15.20;8.00;;;-1.50;66.70;;;;;;4975230;28;20093;-85
2022/03/09 04:00:54;;;;;;;14.90;7.55;;;-1.50;66.80;;;;;;4998887;28;20030;-86
2022/03/09 04:03:20;;;;;;;20.13;7.53;;;-1.50;66.90;;;;;;4980438;28;20038;-85
2022/03/09 04:05:45;;;;;;;12.25;7.47;;;-1.60;66.70;;;;;;4974936;28;20034;-85
2022/03/09 04:08:11;;;;;;;15.27;7.18;;;-1.80;66.50;;;;;;4990511;28;20030;-85
2022/03/09 04:10:37;;;;;;;14.65;8.05;;;-1.90;66.40;;;;;;5001312;28;20034;-84
2022/03/09 04:13:04;;;;;;;13.13;7.05;;;-1.90;66.60;;;;;;4992995;28;20027;-85
2022/03/09 04:15:31;;;;;;;14.38;7.22;;;-2.00;66.90;;;;;;4982236;28;20026;-84
2022/03/09 04:17:57;;;;;;;12.75;7.32;;;-2.10;67.10;;;;;;4976944;28;20319;-86
2022/03/09 04:20:23;;;;;;;16.05;8.18;;;-2.00;67.60;;;;;;4962968;28;20043;-86
2022/03/09 04:22:49;;;;;;;14.98;7.70;;;-1.90;67.90;;;;;;4959311;28;20085;-86
2022/03/09 04:25:15;;;;;;;15.50;8.38;;;-1.80;67.80;;;;;;4989888;28;20038;-86
2022/03/09 04:27:41;;;;;;;15.07;8.27;;;-1.70;68.00;;;;;;4958358;28;20031;-86
2022/03/09 04:30:08;;;;;;;18.25;8.65;;;-1.70;68.10;;;;;;4961662;28;20096;-86
2022/03/09 04:32:34;;;;;;;13.32;7.88;;;-1.70;67.80;;;;;;5008745;28;20463;-85
2022/03/09 04:35:00;;;;;;;13.23;7.35;;;-1.80;67.40;;;;;;4978555;28;20030;-86
2022/03/09 04:37:30;;;;;;;17.20;7.93;;;-1.90;67.40;;;;;;4976713;28;20022;-85
2022/03/09 04:39:59;;;;;;;15.05;8.68;;;-2.00;67.60;;;;;;4992749;28;20080;-85
2022/03/09 04:42:26;;;;;;;15.93;8.48;;;-2.00;67.90;;;;;;4984260;28;20129;-85
2022/03/09 04:44:51;;;;;;;17.55;8.40;;;-2.00;67.90;;;;;;4985736;28;20097;-85
2022/03/09 04:47:17;;;;;;;16.95;8.27;;;-2.00;67.90;;;;;;4991468;28;20073;-86
2022/03/09 04:49:43;;;;;;;12.57;8.00;;;-2.00;68.00;;;;;;4968918;28;20037;-85
2022/03/09 04:52:08;;;;;;;15.25;8.57;;;-2.00;68.00;;;;;;4971384;28;20158;-84
2022/03/09 04:54:34;;;;;;;13.32;7.45;;;-2.10;68.00;;;;;;4986952;28;20022;-84
2022/03/09 04:57:00;;;;;;;14.95;8.02;;;-2.10;68.10;;;;;;4990571;28;20019;-83
2022/03/09 04:59:26;;;;;;;12.88;7.38;;;-2.10;68.30;;;;;;5005494;28;20117;-83
2022/03/09 05:01:51;;;;;;;14.05;7.20;;;-2.00;68.30;;;;;;4999511;28;20035;-85
2022/03/09 05:04:17;;;;;;;15.95;7.47;;;-2.00;68.40;;;;;;4973324;28;20091;-84
2022/03/09 05:06:43;;;;;;;13.07;7.05;;;-2.00;68.40;;;;;;4968280;28;20034;-84
2022/03/09 05:09:08;;;;;;;14.20;7.38;;;-2.00;68.50;;;;;;4977436;28;20022;-86
2022/03/09 05:11:34;;;;;;;11.02;7.13;;;-1.90;68.60;;;;;;4993406;28;20038;-86
2022/03/09 05:13:59;;;;;;;14.43;7.50;;;-1.90;68.70;;;;;;4979100;28;20029;-85
2022/03/09 05:16:25;;;;;;;11.45;6.38;;;-1.80;68.90;;;;;;4971212;28;20022;-85
2022/03/09 05:18:50;;;;;;;12.98;7.00;;;-1.70;69.10;;;;;;5006274;28;20101;-86
2022/03/09 05:21:16;;;;;;;12.63;7.10;;;-1.60;69.10;;;;;;4967773;28;20035;-85
2022/03/09 05:23:42;;;;;;;12.65;7.28;;;-1.50;68.80;;;;;;4977047;28;20026;-85
2022/03/09 05:26:08;;;;;;;15.05;8.43;;;-1.50;68.90;;;;;;4974600;28;20031;-85
2022/03/09 05:28:34;;;;;;;24.23;11.82;;;-1.40;69.00;;;;;;4984316;28;20483;-86
2022/03/09 05:31:00;;;;;;;16.23;9.05;;;-1.40;69.40;;;;;;4981234;28;20154;-85
2022/03/09 05:33:25;;;;;;;16.25;8.40;;;-1.40;68.90;;;;;;4991582;28;20144;-85
2022/03/09 05:35:51;;;;;;;17.13;8.65;;;-1.40;69.60;;;;;;4959948;28;20415;-87
2022/03/09 05:38:16;;;;;;;13.35;7.97;;;-1.40;69.00;;;;;;4970528;28;20093;-88
2022/03/09 05:40:42;;;;;;;17.08;8.13;;;-1.40;69.30;;;;;;4991907;28;20047;-86
2022/03/09 05:43:07;;;;;;;15.23;8.38;;;-1.50;69.20;;;;;;4970437;28;20033;-86
2022/03/09 05:45:33;;;;;;;17.10;9.13;;;-1.50;69.30;;;;;;4968634;28;20031;-86
2022/03/09 05:47:58;;;;;;;18.33;8.90;;;-1.50;69.40;;;;;;4998831;28;20121;-86
2022/03/09 05:50:24;;;;;;;19.88;9.02;;;-1.40;69.60;;;;;;4968774;28;20459;-86
2022/03/09 05:52:51;;;;;;;20.45;9.57;;;-1.40;69.40;;;;;;4968202;28;20085;-85
2022/03/09 05:55:16;;;;;;;20.88;8.93;;;-1.40;69.40;;;;;;4971426;28;20026;-86
2022/03/09 05:57:42;;;;;;;13.57;8.25;;;-1.40;69.30;;;;;;4997989;28;20521;-85
2022/03/09 06:00:08;;;;;;;15.50;8.18;;;-1.50;69.30;;;;;;4968002;28;20096;-85
2022/03/09 06:02:34;;;;;;;15.35;8.52;;;-1.40;69.40;;;;;;4979228;28;20026;-85
2022/03/09 06:04:59;;;;;;;20.63;8.85;;;-1.40;69.40;;;;;;4972835;28;20048;-87
2022/03/09 06:07:25;;;;;;;16.58;8.82;;;-1.50;69.10;;;;;;4983072;28;20033;-86
2022/03/09 06:09:51;;;;;;;17.20;8.75;;;-1.60;69.20;;;;;;4985188;28;20022;-85
2022/03/09 06:12:17;;;;;;;16.52;9.13;;;-1.60;69.30;;;;;;4963976;28;20427;-86
2022/03/09 06:14:44;;;;;;;19.38;9.30;;;-1.70;69.60;;;;;;4998427;28;20399;-87
2022/03/09 06:17:09;;;;;;;16.58;9.25;;;-1.70;69.90;;;;;;4965729;28;20040;-84
2022/03/09 06:19:35;;;;;;;19.75;9.65;;;-1.70;70.10;;;;;;4989721;28;20034;-84
2022/03/09 06:22:00;;;;;;;20.35;10.05;;;-1.80;69.80;;;;;;4966480;28;20086;-88
2022/03/09 06:24:26;;;;;;;23.05;10.70;;;-1.80;69.80;;;;;;4972992;28;20054;-88
2022/03/09 06:26:53;;;;;;;23.15;10.02;;;-1.90;70.00;;;;;;4964254;28;20034;-87
2022/03/09 06:29:19;;;;;;;21.83;10.55;;;-1.90;70.40;;;;;;4987901;28;20061;-87
2022/03/09 06:31:45;;;;;;;24.73;9.38;;;-1.80;71.40;;;;;;4997116;28;20023;-88
2022/03/09 06:34:11;;;;;;;16.77;9.25;;;-1.60;71.10;;;;;;4973901;28;20026;-88
2022/03/09 06:36:37;;;;;;;18.52;9.20;;;-1.50;71.00;;;;;;4987277;28;20061;-85
2022/03/09 06:39:03;;;;;;;18.55;9.25;;;-1.30;71.00;;;;;;4978669;28;20077;-86
2022/03/09 06:41:29;;;;;;;24.50;12.02;;;-1.30;71.00;;;;;;4989312;28;20498;-88
2022/03/09 06:43:55;;;;;;;15.85;9.25;;;-1.10;71.50;;;;;;5006816;28;20038;-89
2022/03/09 06:46:22;;;;;;;20.50;10.50;;;-1.00;71.90;;;;;;4972552;28;20034;-88
2022/03/09 06:48:48;;;;;;;20.50;10.48;;;-0.80;72.20;;;;;;4970808;28;20137;-88
2022/03/09 06:51:13;;;;;;;26.15;12.18;;;-0.60;72.40;;;;;;4984153;28;20487;-88
2022/03/09 06:53:39;;;;;;;22.88;12.77;;;-0.50;72.40;;;;;;4983596;28;20069;-87
2022/03/09 06:56:05;;;;;;;35.05;14.13;;;-0.40;72.50;;;;;;4976032;28;20029;-87
2022/03/09 06:58:30;;;;;;;37.58;17.40;;;-0.30;72.80;;;;;;4975189;28;20039;-88
2022/03/09 07:00:57;;;;;;;23.10;12.07;;;-0.10;73.30;;;;;;4975418;28;20041;-87
2022/03/09 07:03:23;;;;;;;24.60;12.18;;;0.00;73.50;;;;;;4975943;28;20503;-88
2022/03/09 07:05:48;;;;;;;19.67;11.15;;;0.20;73.40;;;;;;4980988;28;20037;-88
2022/03/09 07:08:14;;;;;;;18.17;9.63;;;0.30;73.20;;;;;;4995815;28;20022;-86
2022/03/09 07:10:40;;;;;;;21.98;11.73;;;0.40;73.30;;;;;;4991083;28;20069;-89
2022/03/09 07:13:06;;;;;;;18.00;10.82;;;0.50;73.20;;;;;;4978257;28;20507;-87
2022/03/09 07:15:32;;;;;;;16.83;10.07;;;0.60;73.50;;;;;;4993302;28;20030;-88
2022/03/09 07:17:57;;;;;;;15.02;9.00;;;0.70;73.70;;;;;;4972747;28;20035;-88
2022/03/09 07:20:23;;;;;;;18.38;9.40;;;0.90;73.80;;;;;;4992079;28;20429;-88
2022/03/09 07:22:49;;;;;;;17.40;9.23;;;1.00;73.80;;;;;;5009403;28;20118;-87
2022/03/09 07:25:15;;;;;;;17.88;9.27;;;1.20;73.90;;;;;;4977082;28;20470;-89
2022/03/09 07:27:41;;;;;;;17.13;8.48;;;1.60;74.00;;;;;;4960221;28;20125;-86
2022/03/09 07:30:08;;;;;;;17.42;9.20;;;2.00;73.50;;;;;;5005023;28;20022;-90
2022/03/09 07:32:34;;;;;;;16.98;8.30;;;2.50;72.90;;;;;;4972610;28;20019;-87
2022/03/09 07:35:00;;;;;;;16.48;8.75;;;2.90;72.40;;;;;;5000316;28;20034;-89
2022/03/09 07:37:25;;;;;;;20.50;10.52;;;3.10;71.90;;;;;;4965020;28;20038;-91
2022/03/09 07:39:51;;;;;;;21.20;9.90;;;3.10;71.70;;;;;;4999394;28;20027;-90
2022/03/09 07:42:17;;;;;;;20.52;9.77;;;3.50;71.40;;;;;;4973704;28;20038;-90
2022/03/09 07:44:43;;;;;;;17.45;9.77;;;4.10;70.40;;;;;;4997090;28;20049;-91
2022/03/09 07:47:09;;;;;;;16.35;9.70;;;4.60;69.20;;;;;;4974904;28;20498;-90
2022/03/09 07:49:36;;;;;;;14.02;9.25;;;5.10;68.40;;;;;;4979312;28;20125;-91
2022/03/09 07:52:02;;;;;;;14.43;9.07;;;5.50;68.30;;;;;;4961966;28;20124;-91
2022/03/09 07:54:28;;;;;;;17.45;9.85;;;5.70;68.10;;;;;;4963478;28;20033;-89
2022/03/09 07:56:55;;;;;;;16.17;9.75;;;6.10;68.40;;;;;;4969166;28;20030;-89
2022/03/09 07:59:20;;;;;;;19.58;8.43;;;6.60;68.10;;;;;;4966104;28;20038;-88
2022/03/09 08:01:46;;;;;;;17.25;8.30;;;7.10;67.10;;;;;;4983711;28;20034;-89
2022/03/09 08:04:12;;;;;;;14.55;8.40;;;7.40;65.70;;;;;;4974207;28;20026;-89
2022/03/09 08:06:38;;;;;;;14.05;8.57;;;7.60;65.10;;;;;;4970680;28;20435;-90
2022/03/09 08:09:04;;;;;;;15.63;9.10;;;7.50;64.80;;;;;;4971927;28;20039;-89
2022/03/09 08:11:30;;;;;;;17.90;9.23;;;7.30;65.40;;;;;;4984195;28;20030;-88
2022/03/09 08:13:57;;;;;;;21.58;9.85;;;7.10;65.40;;;;;;4970867;28;20117;-86
2022/03/09 08:16:22;;;;;;;13.57;8.52;;;6.90;65.50;;;;;;5014630;28;20122;-86
2022/03/09 08:18:48;;;;;;;12.25;8.45;;;6.70;66.20;;;;;;4981887;28;20125;-85
2022/03/09 08:21:14;;;;;;;13.80;8.90;;;6.70;66.30;;;;;;4963357;28;20077;-86
2022/03/09 08:23:39;;;;;;;12.07;7.60;;;6.70;67.40;;;;;;4982904;28;20102;-86
2022/03/09 08:26:05;;;;;;;15.63;9.27;;;6.60;67.20;;;;;;4998416;28;20027;-87
2022/03/09 08:28:31;;;;;;;15.68;8.70;;;6.50;67.70;;;;;;4971107;28;20053;-85
2022/03/09 08:30:56;;;;;;;12.88;8.25;;;6.40;68.20;;;;;;5009897;28;20033;-86
2022/03/09 08:33:22;;;;;;;12.43;8.82;;;6.40;69.30;;;;;;4981040;28;20038;-86
2022/03/09 08:35:47;;;;;;;11.82;7.88;;;6.50;69.90;;;;;;5005909;28;20006;-86
2022/03/09 08:38:13;;;;;;;12.93;8.07;;;6.70;69.80;;;;;;4993647;28;20117;-86
2022/03/09 08:40:38;;;;;;;12.25;8.13;;;7.00;69.80;;;;;;4958165;28;20618;-86
2022/03/09 08:43:04;;;;;;;13.43;8.23;;;7.10;69.00;;;;;;4988922;28;20107;-86
2022/03/09 08:45:30;;;;;;;12.10;7.35;;;7.10;67.90;;;;;;4973184;28;20026;-87
2022/03/09 08:47:55;;;;;;;13.13;8.10;;;6.90;67.00;;;;;;5008621;28;20026;-87
2022/03/09 08:50:21;;;;;;;10.57;7.35;;;6.70;66.60;;;;;;4991198;28;20038;-87
2022/03/09 08:52:47;;;;;;;11.77;7.25;;;6.40;66.40;;;;;;4978530;28;20029;-86
2022/03/09 08:55:12;;;;;;;12.23;7.20;;;6.10;66.60;;;;;;4961901;28;20326;-86
2022/03/09 08:57:38;;;;;;;12.73;7.93;;;6.00;67.30;;;;;;4991192;28;20026;-87
2022/03/09 09:00:05;;;;;;;11.60;7.40;;;6.00;68.00;;;;;;4984653;28;20065;-87
2022/03/09 09:02:31;;;;;;;11.30;7.53;;;6.10;68.00;;;;;;4965595;28;20626;-86
2022/03/09 09:04:58;;;;;;;12.02;7.55;;;6.10;67.80;;;;;;4977388;28;20026;-87
2022/03/09 09:07:24;;;;;;;14.38;7.85;;;6.20;68.20;;;;;;4978548;28;20411;-87
2022/03/09 09:09:50;;;;;;;12.70;7.38;;;6.40;68.50;;;;;;4991194;28;20025;-86
2022/03/09 09:12:16;;;;;;;12.30;6.70;;;6.60;68.20;;;;;;5001069;28;20021;-86
2022/03/09 09:14:41;;;;;;;13.57;6.85;;;6.70;68.10;;;;;;5009896;28;20052;-86
2022/03/09 09:17:07;;;;;;;12.43;7.20;;;6.80;67.50;;;;;;5011914;28;20031;-87
2022/03/09 09:19:33;;;;;;;15.48;7.65;;;6.70;66.70;;;;;;4960406;28;20050;-87
2022/03/09 09:21:59;;;;;;;11.63;6.32;;;6.70;66.90;;;;;;4989404;28;20022;-87
2022/03/09 09:24:25;;;;;;;13.25;6.72;;;6.60;66.10;;;;;;4979888;28;20053;-86
2022/03/09 09:26:51;;;;;;;12.70;7.82;;;6.40;66.20;;;;;;4983230;28;20479;-87
2022/03/09 09:29:16;;;;;;;12.88;8.82;;;6.50;66.70;;;;;;4994574;28;19921;-87
2022/03/09 09:31:42;;;;;;;11.20;6.93;;;6.40;66.30;;;;;;4970079;28;20050;-86
2022/03/09 09:34:08;;;;;;;11.85;7.55;;;6.40;66.60;;;;;;4962972;28;20031;-86
2022/03/09 09:36:34;;;;;;;12.75;7.07;;;6.50;67.60;;;;;;4977470;28;20037;-87
2022/03/09 09:39:00;;;;;;;11.40;6.88;;;6.60;67.60;;;;;;4984338;28;20084;-87
2022/03/09 09:41:26;;;;;;;11.63;7.38;;;6.70;67.10;;;;;;4993812;28;20034;-87
2022/03/09 09:43:52;;;;;;;14.43;7.38;;;6.60;66.50;;;;;;4978136;28;20030;-87
2022/03/09 09:46:20;;;;;;;13.60;7.40;;;6.70;66.80;;;;;;4966061;28;20103;-88
2022/03/09 09:48:47;;;;;;;9.80;6.60;;;6.80;67.00;;;;;;4994049;28;20034;-88
2022/03/09 09:51:13;;;;;;;11.48;7.47;;;6.90;67.00;;;;;;4976252;28;20080;-89
2022/03/09 09:53:43;;;;;;;11.82;7.53;;;6.90;66.60;;;;;;4983614;28;20022;-89
2022/03/09 09:56:09;;;;;;;11.45;6.65;;;6.90;66.50;;;;;;4981044;28;20245;-89
2022/03/09 09:58:37;;;;;;;10.45;6.75;;;7.10;67.40;;;;;;4983440;28;20031;-89
2022/03/09 10:01:03;;;;;;;13.07;7.15;;;7.30;67.10;;;;;;4974317;28;20415;-88
2022/03/09 10:03:31;;;;;;;11.93;7.15;;;7.50;67.10;;;;;;4981096;28;20033;-89
2022/03/09 10:05:57;;;;;;;10.65;7.03;;;7.80;67.20;;;;;;4979018;28;20390;-89
2022/03/09 10:08:32;;;;;;;11.88;6.45;;;7.90;67.10;;;;;;4974671;28;20031;-90
2022/03/09 10:11:05;;;;;;;12.20;7.53;;;8.10;67.30;;;;;;4983293;28;20046;-89
2022/03/09 10:13:33;;;;;;;12.27;7.32;;;8.20;67.00;;;;;;4973762;28;20054;-89
2022/03/09 10:16:20;;;;;;;11.43;7.03;;;8.30;67.10;;;;;;4966942;28;20084;-89
2022/03/09 10:18:54;;;;;;;12.73;7.05;;;8.30;66.60;;;;;;4969931;28;20032;-87
2022/03/09 10:21:28;;;;;;;12.93;7.13;;;8.40;66.30;;;;;;4964591;28;20065;-88
2022/03/09 10:24:05;;;;;;;14.77;7.18;;;8.30;66.00;;;;;;4960874;28;20022;-88
2022/03/09 10:26:34;;;;;;;37.53;22.35;;;8.30;66.10;;;;;;4971304;28;20396;-89
2022/03/09 10:29:12;;;;;;;13.90;7.72;;;8.40;66.30;;;;;;5002061;28;20117;-89
2022/03/09 10:31:46;;;;;;;10.98;7.10;;;8.50;65.90;;;;;;4988261;28;20583;-89
2022/03/09 10:34:20;;;;;;;12.60;6.97;;;8.50;65.90;;;;;;4962159;28;20399;-90
2022/03/09 10:36:59;;;;;;;10.82;6.78;;;8.50;65.40;;;;;;4957326;28;20066;-90
2022/03/09 10:39:29;;;;;;;13.70;7.43;;;8.50;64.80;;;;;;5009093;28;20540;-89
2022/03/09 10:41:55;;;;;;;15.90;8.70;;;8.60;65.20;;;;;;4987086;28;20026;-88
2022/03/09 10:44:46;;;;;;;10.77;7.03;;;8.60;65.40;;;;;;4976214;28;20022;-90
2022/03/09 10:47:27;;;;;;;14.00;8.05;;;8.60;65.20;;;;;;4998910;28;20018;-88
2022/03/09 10:49:53;;;;;;;14.85;7.18;;;8.70;65.60;;;;;;4982608;28;20113;-89
2022/03/09 10:52:19;;;;;;;16.15;7.75;;;8.80;65.60;;;;;;4990035;28;20109;-89
2022/03/09 10:54:44;;;;;;;12.18;7.80;;;8.80;65.30;;;;;;4981381;28;20042;-89
2022/03/09 10:57:12;;;;;;;11.75;7.78;;;8.80;65.00;;;;;;4992158;28;20089;-89
2022/03/09 10:59:51;;;;;;;11.95;7.43;;;8.70;64.50;;;;;;4979649;28;20029;-88
2022/03/09 11:02:19;;;;;;;10.68;7.15;;;8.80;64.80;;;;;;4993356;28;20729;-89
2022/03/09 11:05:17;;;;;;;14.93;8.38;;;8.90;64.60;;;;;;4994122;28;20048;-89
2022/03/09 11:07:43;;;;;;;13.30;7.95;;;8.90;64.10;;;;;;4970240;28;20557;-88
2022/03/09 11:10:10;;;;;;;13.43;8.20;;;8.80;64.00;;;;;;4966609;28;20401;-88
2022/03/09 11:12:38;;;;;;;13.30;8.10;;;8.90;64.30;;;;;;4983093;28;20050;-89
2022/03/09 11:15:04;;;;;;;12.40;7.65;;;9.00;64.10;;;;;;4964403;28;20390;-88
2022/03/09 11:17:29;;;;;;;13.52;7.78;;;9.00;63.80;;;;;;4973019;28;20395;-88
2022/03/09 11:19:55;;;;;;;15.95;9.00;;;9.10;63.60;;;;;;4961143;28;20027;-88
2022/03/09 11:22:21;;;;;;;12.55;7.82;;;9.20;63.60;;;;;;4981788;28;20088;-88
2022/03/09 11:24:48;;;;;;;14.50;8.18;;;9.40;63.70;;;;;;4985098;28;20054;-89
2022/03/09 11:27:15;;;;;;;14.02;8.75;;;9.50;63.70;;;;;;4974424;28;20030;-88
2022/03/09 11:29:42;;;;;;;16.17;8.18;;;9.60;63.40;;;;;;4985965;28;20218;-89
2022/03/09 11:32:09;;;;;;;15.50;8.77;;;9.80;63.40;;;;;;4988436;28;20055;-88
2022/03/09 11:34:39;;;;;;;16.23;8.45;;;9.90;63.20;;;;;;4956724;28;20106;-87
2022/03/09 11:37:08;;;;;;;12.63;8.35;;;10.10;63.20;;;;;;4976114;28;20035;-89
2022/03/09 11:39:38;;;;;;;14.27;8.73;;;10.20;62.40;;;;;;4965186;28;20035;-88
2022/03/09 11:42:22;;;;;;;12.82;8.27;;;10.40;62.10;;;;;;4992250;28;20022;-90
2022/03/09 11:44:52;;;;;;;13.90;8.43;;;10.40;61.90;;;;;;4967675;28;20019;-89
2022/03/09 11:47:19;;;;;;;15.45;7.85;;;10.60;62.50;;;;;;4959885;28;20031;-88
2022/03/09 11:49:52;;;;;;;14.63;8.73;;;10.80;62.50;;;;;;4965220;28;20030;-89
2022/03/09 11:52:18;;;;;;;15.55;7.95;;;11.00;62.40;;;;;;4972455;28;20176;-88
2022/03/09 11:54:45;;;;;;;14.10;8.98;;;11.20;61.70;;;;;;4959274;28;20117;-88
2022/03/09 11:57:13;;;;;;;14.98;8.25;;;11.30;61.30;;;;;;4970296;28;20024;-88
2022/03/09 11:59:39;;;;;;;13.18;8.18;;;11.40;61.00;;;;;;4964165;28;20026;-88
2022/03/09 12:02:12;;;;;;;16.80;8.60;;;11.50;60.40;;;;;;5052446;23;21418;-89
2022/03/09 12:04:42;;;;;;;12.32;8.38;;;11.60;60.20;;;;;;4985002;28;20035;-89
2022/03/09 12:07:09;;;;;;;16.25;7.97;;;11.70;60.00;;;;;;4984406;28;20061;-89
2022/03/09 12:09:57;;;;;;;15.32;8.18;;;11.80;59.40;;;;;;4976198;28;20026;-90
2022/03/09 12:12:24;;;;;;;15.00;8.65;;;11.90;58.70;;;;;;4987562;28;20089;-90
2022/03/09 12:15:07;;;;;;;16.08;9.02;;;12.00;59.30;;;;;;4989514;28;20090;-89
2022/03/09 12:17:37;;;;;;;14.30;9.05;;;12.30;59.60;;;;;;4988183;28;20081;-89
2022/03/09 12:20:25;;;;;;;14.20;8.02;;;12.40;60.10;;;;;;4988532;28;20031;-89
2022/03/09 12:22:57;;;;;;;15.20;8.25;;;12.50;58.20;;;;;;4983281;28;20505;-89
2022/03/09 12:25:37;;;;;;;14.63;8.52;;;12.50;57.60;;;;;;4975207;28;20494;-89
2022/03/09 12:28:22;;;;;;;14.82;8.77;;;12.50;56.90;;;;;;4985737;28;20505;-90
2022/03/09 12:30:48;;;;;;;13.05;8.82;;;12.60;56.70;;;;;;5007466;28;20367;-89
2022/03/09 12:33:25;;;;;;;13.13;8.45;;;12.70;57.20;;;;;;5008073;28;20149;-87
2022/03/09 12:35:52;;;;;;;14.85;8.20;;;12.80;55.90;;;;;;4975226;28;20034;-88
2022/03/09 12:38:18;;;;;;;13.90;8.70;;;12.90;56.00;;;;;;4974494;28;20030;-86
2022/03/09 12:40:45;;;;;;;13.02;8.35;;;13.00;55.90;;;;;;4994420;28;20421;-87
2022/03/09 12:43:11;;;;;;;13.13;8.27;;;13.20;56.40;;;;;;4986386;28;20056;-88